createdAt,value
2023-05-01T00:00:00.698Z,495.90
2023-05-01T00:01:00.720Z,418.00
2023-05-01T00:02:00.698Z,687.10
2023-05-01T00:03:00.824Z,753.30
2023-05-01T00:04:00.888Z,643.90
2023-05-01T00:05:00.800Z,609.80
2023-05-01T00:06:00.643Z,572.60
2023-05-01T00:07:00.645Z,635.30
2023-05-01T00:08:00.620Z,602.40
2023-05-01T00:09:00.603Z,449.20
2023-05-01T00:10:00.593Z,431.50
2023-05-01T00:11:00.583Z,402.90
2023-05-01T00:12:00.613Z,451.70
2023-05-01T00:13:00.547Z,575.40
2023-05-01T00:14:00.563Z,652.40
2023-05-01T00:15:00.561Z,613.80
2023-05-01T00:16:00.534Z,610.30
2023-05-01T00:17:00.526Z,640.30
2023-05-01T00:18:00.517Z,641.80
2023-05-01T00:19:00.509Z,621.60
2023-05-01T00:20:00.485Z,488.80
2023-05-01T00:21:00.458Z,571.30
2023-05-01T00:22:00.497Z,420.30
2023-05-01T00:23:00.454Z,667.20
2023-05-01T00:24:00.472Z,681.50
2023-05-01T00:25:00.428Z,487.10
2023-05-01T00:26:00.412Z,504.50
2023-05-01T00:27:00.441Z,465.30
2023-05-01T00:28:00.395Z,682.60
2023-05-01T00:29:00.384Z,704.40
2023-05-01T00:30:00.367Z,678.20
2023-05-01T00:31:00.367Z,696.00
2023-05-01T00:32:00.425Z,674.40
2023-05-01T00:33:00.364Z,642.30
2023-05-01T00:34:00.332Z,634.10
2023-05-01T00:35:00.328Z,631.30
2023-05-01T00:36:00.315Z,635.60
2023-05-01T00:37:00.342Z,650.90
2023-05-01T00:38:00.277Z,664.00
2023-05-01T00:39:00.265Z,518.10
2023-05-01T00:40:00.287Z,548.00
2023-05-01T00:41:00.237Z,527.80
2023-05-01T00:42:00.248Z,561.80
2023-05-01T00:43:00.235Z,555.20
2023-05-01T00:44:00.196Z,557.50
2023-05-01T00:45:00.210Z,541.30
2023-05-01T00:46:00.334Z,544.50
2023-05-01T00:47:00.234Z,491.20
2023-05-01T00:48:00.269Z,508.20
2023-05-01T00:49:00.179Z,554.20
2023-05-01T00:50:00.188Z,538.20
2023-05-01T00:51:00.170Z,545.60
2023-05-01T00:52:00.186Z,551.10
2023-05-01T00:53:00.158Z,523.10
2023-05-01T00:54:00.170Z,614.90
2023-05-01T00:55:00.127Z,548.60
2023-05-01T00:56:00.088Z,577.80
2023-05-01T00:57:00.093Z,554.20
2023-05-01T00:58:00.074Z,537.70
2023-05-01T00:59:00.065Z,578.60
2023-05-01T01:00:00.067Z,589.50
2023-05-01T01:01:00.054Z,611.80
2023-05-01T01:02:00.058Z,594.50
2023-05-01T01:03:00.053Z,586.70
2023-05-01T01:04:00.048Z,570.20
2023-05-01T01:05:00.034Z,561.00
2023-05-01T01:05:59.982Z,554.50
2023-05-01T01:07:00.005Z,551.80
2023-05-01T01:07:59.939Z,511.80
2023-05-01T01:08:59.924Z,544.40
2023-05-01T01:09:59.925Z,503.10
2023-05-01T01:10:59.921Z,554.40
2023-05-01T01:11:59.924Z,521.00
2023-05-01T01:12:59.883Z,505.20
2023-05-01T01:13:59.877Z,726.60
2023-05-01T01:14:59.850Z,571.50
2023-05-01T01:15:59.846Z,558.60
2023-05-01T01:16:59.921Z,559.60
2023-05-01T01:17:59.869Z,542.80
2023-05-01T01:18:59.813Z,480.20
2023-05-01T01:19:59.811Z,833.30
2023-05-01T01:20:59.795Z,814.60
2023-05-01T01:21:59.829Z,575.20
2023-05-01T01:22:59.786Z,805.60
2023-05-01T01:23:59.781Z,857.20
2023-05-01T01:24:59.761Z,833.90
2023-05-01T01:25:59.795Z,800.80
2023-05-01T01:26:59.710Z,808.70
2023-05-01T01:27:59.775Z,823.00
2023-05-01T01:28:59.709Z,832.50
2023-05-01T01:29:59.700Z,843.10
2023-05-01T01:30:59.715Z,837.30
2023-05-01T01:31:59.673Z,840.80
2023-05-01T01:32:59.752Z,857.90
2023-05-01T01:33:59.661Z,829.00
2023-05-01T01:34:59.625Z,833.30
2023-05-01T01:35:59.629Z,813.80
2023-05-01T01:36:59.616Z,639.40
2023-05-01T01:37:59.649Z,620.10
2023-05-01T01:38:59.609Z,761.60
2023-05-01T01:39:59.590Z,703.30
2023-05-01T01:40:59.605Z,722.20
2023-05-01T01:41:59.582Z,734.50
2023-05-01T01:42:59.596Z,499.30
2023-05-01T01:43:59.545Z,886.40
2023-05-01T01:44:59.522Z,858.50
2023-05-01T01:45:59.550Z,531.70
2023-05-01T01:46:59.514Z,465.50
2023-05-01T01:47:59.590Z,787.40
2023-05-01T01:48:59.488Z,782.00
2023-05-01T01:49:59.495Z,747.10
2023-05-01T01:50:59.466Z,746.10
2023-05-01T01:51:59.452Z,713.80
2023-05-01T01:52:59.461Z,616.70
2023-05-01T01:53:59.445Z,602.20
2023-05-01T01:54:59.419Z,822.90
2023-05-01T01:56:00.787Z,847.40
2023-05-01T01:56:59.383Z,586.30
2023-05-01T01:57:59.434Z,765.50
2023-05-01T01:58:59.364Z,581.20
2023-05-01T01:59:59.348Z,586.20
2023-05-01T02:00:59.334Z,584.20
2023-05-01T02:01:59.504Z,553.20
2023-05-01T02:02:59.429Z,559.00
2023-05-01T02:03:59.368Z,545.90
2023-05-01T02:04:59.311Z,771.20
2023-05-01T02:05:59.344Z,548.90
2023-05-01T02:06:59.302Z,543.60
2023-05-01T02:07:59.349Z,522.30
2023-05-01T02:08:59.269Z,578.50
2023-05-01T02:09:59.437Z,573.60
2023-05-01T02:11:01.113Z,577.20
2023-05-01T02:11:59.230Z,610.90
2023-05-01T02:12:59.274Z,561.10
2023-05-01T02:13:59.206Z,558.40
2023-05-01T02:14:59.185Z,561.60
2023-05-01T02:15:59.225Z,541.50
2023-05-01T02:16:59.154Z,552.20
2023-05-01T02:17:59.308Z,538.80
2023-05-01T02:18:59.142Z,533.30
2023-05-01T02:19:59.135Z,538.70
2023-05-01T02:20:59.130Z,539.60
2023-05-01T02:21:59.112Z,530.40
2023-05-01T02:22:59.139Z,537.70
2023-05-01T02:23:59.083Z,547.80
2023-05-01T02:24:59.078Z,730.30
2023-05-01T02:25:59.071Z,643.70
2023-05-01T02:26:59.062Z,736.40
2023-05-01T02:27:59.089Z,529.10
2023-05-01T02:28:59.033Z,576.00
2023-05-01T02:29:59.217Z,563.90
2023-05-01T02:30:59.026Z,574.40
2023-05-01T02:31:59.189Z,584.90
2023-05-01T02:32:59.061Z,524.00
2023-05-01T02:33:58.974Z,617.20
2023-05-01T02:34:58.960Z,741.50
2023-05-01T02:35:58.962Z,922.90
2023-05-01T02:36:58.954Z,887.50
2023-05-01T02:37:58.978Z,884.10
2023-05-01T02:38:58.908Z,918.40
2023-05-01T02:39:59.107Z,907.50
2023-05-01T02:40:58.900Z,922.10
2023-05-01T02:41:58.920Z,917.40
2023-05-01T02:42:58.921Z,906.40
2023-05-01T02:43:58.874Z,908.30
2023-05-01T02:44:58.860Z,819.20
2023-05-01T02:45:59.096Z,799.70
2023-05-01T02:46:58.858Z,762.80
2023-05-01T02:47:58.893Z,823.40
2023-05-01T02:48:58.815Z,823.30
2023-05-01T02:49:59.059Z,835.20
2023-05-01T02:50:58.796Z,827.90
2023-05-01T02:51:58.787Z,830.30
2023-05-01T02:52:58.828Z,833.30
2023-05-01T02:53:58.787Z,833.10
2023-05-01T02:54:58.741Z,757.10
2023-05-01T02:55:58.724Z,686.60
2023-05-01T02:56:58.726Z,786.30
2023-05-01T02:57:58.761Z,764.80
2023-05-01T02:58:58.694Z,617.20
2023-05-01T02:59:58.701Z,580.50
2023-05-01T03:00:58.706Z,576.60
2023-05-01T03:01:58.682Z,582.10
2023-05-01T03:02:58.759Z,607.30
2023-05-01T03:03:58.737Z,601.10
2023-05-01T03:04:58.711Z,617.20
2023-05-01T03:05:58.681Z,600.50
2023-05-01T03:06:58.651Z,586.10
2023-05-01T03:07:58.691Z,587.30
2023-05-01T03:08:58.595Z,599.10
2023-05-01T03:09:58.720Z,596.60
2023-05-01T03:10:58.575Z,602.20
2023-05-01T03:11:58.555Z,635.70
2023-05-01T03:12:58.582Z,619.70
2023-05-01T03:13:58.553Z,597.50
2023-05-01T03:14:58.534Z,596.00
2023-05-01T03:15:58.540Z,600.70
2023-05-01T03:16:58.626Z,630.40
2023-05-01T03:17:58.559Z,621.70
2023-05-01T03:18:58.474Z,631.30
2023-05-01T03:19:58.602Z,628.20
2023-05-01T03:20:58.472Z,633.70
2023-05-01T03:21:58.469Z,617.60
2023-05-01T03:22:58.480Z,610.80
2023-05-01T03:23:58.435Z,613.00
2023-05-01T03:24:58.396Z,615.20
2023-05-01T03:25:58.407Z,615.90
2023-05-01T03:26:58.388Z,605.90
2023-05-01T03:27:58.396Z,616.90
2023-05-01T03:28:58.413Z,615.70
2023-05-01T03:29:58.457Z,625.10
2023-05-01T03:30:58.354Z,695.10
2023-05-01T03:31:58.430Z,697.10
2023-05-01T03:32:58.347Z,700.30
2023-05-01T03:33:58.366Z,729.60
2023-05-01T03:34:58.373Z,664.50
2023-05-01T03:35:58.293Z,723.00
2023-05-01T03:36:58.306Z,692.90
2023-05-01T03:37:58.270Z,723.50
2023-05-01T03:38:58.298Z,749.20
2023-05-01T03:39:58.428Z,799.50
2023-05-01T03:40:58.242Z,728.70
2023-05-01T03:41:58.232Z,769.00
2023-05-01T03:42:58.208Z,764.30
2023-05-01T03:43:58.244Z,736.50
2023-05-01T03:44:58.197Z,714.30
2023-05-01T03:45:58.229Z,731.50
2023-05-01T03:46:58.170Z,732.00
2023-05-01T03:47:58.206Z,745.30
2023-05-01T03:48:58.191Z,742.90
2023-05-01T03:49:58.381Z,676.30
2023-05-01T03:50:58.145Z,677.10
2023-05-01T03:51:58.128Z,692.30
2023-05-01T03:52:58.119Z,701.20
2023-05-01T03:53:58.133Z,670.10
2023-05-01T03:54:58.101Z,615.00
2023-05-01T03:55:58.080Z,624.50
2023-05-01T03:56:58.078Z,628.90
2023-05-01T03:57:58.082Z,599.50
2023-05-01T03:58:58.087Z,628.10
2023-05-01T03:59:58.271Z,604.40
2023-05-01T04:00:58.033Z,604.50
2023-05-01T04:01:58.058Z,607.10
2023-05-01T04:02:58.257Z,579.00
2023-05-01T04:03:58.303Z,593.00
2023-05-01T04:04:57.979Z,621.60
2023-05-01T04:05:58.058Z,564.90
2023-05-01T04:06:57.959Z,494.20
2023-05-01T04:07:57.976Z,541.70
2023-05-01T04:08:57.951Z,521.30
2023-05-01T04:09:58.087Z,537.70
2023-05-01T04:10:57.907Z,525.60
2023-05-01T04:11:57.893Z,481.90
2023-05-01T04:12:57.884Z,462.30
2023-05-01T04:13:57.904Z,449.70
2023-05-01T04:14:57.898Z,425.00
2023-05-01T04:15:57.950Z,421.00
2023-05-01T04:16:57.827Z,424.50
2023-05-01T04:17:57.874Z,418.70
2023-05-01T04:18:57.822Z,416.00
2023-05-01T04:19:58.252Z,437.20
2023-05-01T04:20:57.805Z,528.50
2023-05-01T04:21:57.804Z,431.30
2023-05-01T04:22:57.768Z,444.60
2023-05-01T04:23:57.760Z,692.30
2023-05-01T04:24:57.787Z,611.20
2023-05-01T04:25:57.747Z,604.20
2023-05-01T04:26:57.762Z,503.10
2023-05-01T04:27:57.738Z,402.10
2023-05-01T04:28:57.744Z,494.40
2023-05-01T04:29:58.266Z,500.20
2023-05-01T04:30:57.727Z,468.80
2023-05-01T04:31:57.849Z,539.10
2023-05-01T04:32:57.720Z,481.50
2023-05-01T04:33:57.677Z,446.10
2023-05-01T04:34:58.007Z,455.10
2023-05-01T04:35:57.640Z,457.40
2023-05-01T04:36:57.626Z,442.70
2023-05-01T04:37:57.625Z,498.90
2023-05-01T04:38:57.597Z,479.90
2023-05-01T04:39:58.045Z,476.20
2023-05-01T04:40:57.574Z,451.60
2023-05-01T04:41:57.572Z,422.30
2023-05-01T04:42:57.546Z,584.70
2023-05-01T04:43:57.552Z,259.40
2023-05-01T04:44:57.558Z,334.30
2023-05-01T04:45:57.517Z,315.80
2023-05-01T04:46:57.567Z,264.20
2023-05-01T04:47:57.583Z,331.30
2023-05-01T04:48:57.456Z,350.50
2023-05-01T04:49:57.668Z,227.70
2023-05-01T04:50:57.467Z,228.60
2023-05-01T04:51:57.441Z,357.80
2023-05-01T04:52:57.433Z,200.50
2023-05-01T04:53:57.470Z,320.50
2023-05-01T04:54:57.408Z,291.90
2023-05-01T04:55:57.395Z,290.90
2023-05-01T04:56:57.381Z,188.10
2023-05-01T04:57:57.376Z,341.30
2023-05-01T04:58:57.400Z,381.30
2023-05-01T04:59:57.852Z,380.90
2023-05-01T05:00:57.354Z,395.90
2023-05-01T05:01:57.486Z,359.10
2023-05-01T05:02:57.430Z,258.80
2023-05-01T05:03:57.586Z,315.80
2023-05-01T05:04:57.287Z,293.50
2023-05-01T05:05:57.341Z,233.90
2023-05-01T05:06:57.287Z,377.90
2023-05-01T05:07:57.306Z,320.20
2023-05-01T05:08:57.261Z,317.70
2023-05-01T05:09:57.521Z,218.10
2023-05-01T05:10:57.241Z,275.40
2023-05-01T05:11:57.213Z,286.00
2023-05-01T05:12:57.248Z,228.10
2023-05-01T05:13:57.220Z,204.90
2023-05-01T05:14:57.246Z,220.00
2023-05-01T05:15:57.175Z,232.70
2023-05-01T05:16:57.189Z,227.40
2023-05-01T05:17:57.260Z,150.20
2023-05-01T05:18:57.147Z,273.60
2023-05-01T05:19:57.307Z,235.10
2023-05-01T05:20:57.127Z,226.30
2023-05-01T05:21:57.116Z,143.10
2023-05-01T05:22:57.116Z,177.60
2023-05-01T05:23:57.093Z,252.30
2023-05-01T05:24:57.110Z,122.20
2023-05-01T05:25:57.069Z,176.20
2023-05-01T05:26:57.065Z,222.20
2023-05-01T05:27:57.036Z,88.10
2023-05-01T05:28:57.044Z,55.20
2023-05-01T05:29:57.201Z,83.90
2023-05-01T05:30:57.012Z,251.00
2023-05-01T05:31:57.028Z,194.30
2023-05-01T05:32:57.045Z,281.10
2023-05-01T05:33:56.971Z,175.00
2023-05-01T05:34:57.008Z,138.90
2023-05-01T05:35:56.953Z,282.00
2023-05-01T05:36:56.943Z,166.40
2023-05-01T05:37:56.919Z,267.00
2023-05-01T05:38:56.932Z,216.30
2023-05-01T05:39:57.214Z,346.40
2023-05-01T05:40:56.891Z,191.80
2023-05-01T05:41:56.901Z,205.40
2023-05-01T05:42:56.864Z,231.40
2023-05-01T05:43:56.865Z,190.60
2023-05-01T05:44:56.883Z,100.30
2023-05-01T05:45:56.896Z,97.50
2023-05-01T05:46:56.829Z,77.60
2023-05-01T05:47:56.937Z,82.00
2023-05-01T05:48:56.798Z,239.80
2023-05-01T05:49:56.992Z,58.30
2023-05-01T05:50:56.787Z,63.30
2023-05-01T05:51:56.793Z,53.80
2023-05-01T05:52:56.778Z,60.80
2023-05-01T05:53:56.743Z,60.10
2023-05-01T05:54:56.830Z,51.40
2023-05-01T05:55:56.740Z,42.20
2023-05-01T05:56:56.739Z,130.00
2023-05-01T05:57:56.736Z,41.10
2023-05-01T05:58:56.699Z,34.50
2023-05-01T05:59:56.958Z,33.10
2023-05-01T06:00:56.679Z,33.60
2023-05-01T06:01:56.675Z,29.60
2023-05-01T06:02:56.770Z,27.20
2023-05-01T06:03:56.743Z,25.90
2023-05-01T06:04:56.671Z,26.80
2023-05-01T06:05:56.765Z,224.40
2023-05-01T06:06:56.682Z,42.00
2023-05-01T06:07:56.596Z,55.30
2023-05-01T06:08:56.606Z,126.90
2023-05-01T06:09:56.801Z,192.10
2023-05-01T06:10:56.577Z,112.00
2023-05-01T06:11:56.542Z,110.90
2023-05-01T06:13:05.451Z,55.80
2023-05-01T06:13:57.532Z,47.60
2023-05-01T06:14:56.552Z,199.90
2023-05-01T06:15:56.531Z,74.40
2023-05-01T06:16:56.486Z,110.90
2023-05-01T06:17:56.565Z,240.30
2023-05-01T06:18:56.496Z,288.00
2023-05-01T06:19:56.695Z,169.60
2023-05-01T06:20:56.433Z,75.60
2023-05-01T06:21:56.428Z,131.60
2023-05-01T06:22:56.431Z,114.70
2023-05-01T06:23:56.442Z,34.60
2023-05-01T06:24:56.422Z,62.40
2023-05-01T06:25:56.384Z,40.30
2023-05-01T06:26:56.382Z,47.70
2023-05-01T06:27:56.376Z,48.00
2023-05-01T06:28:56.410Z,26.00
2023-05-01T06:29:56.654Z,19.90
2023-05-01T06:30:56.363Z,22.70
2023-05-01T06:31:56.410Z,24.00
2023-05-01T06:32:56.368Z,35.00
2023-05-01T06:33:56.342Z,28.10
2023-05-01T06:34:56.291Z,24.30
2023-05-01T06:35:56.274Z,25.70
2023-05-01T06:36:56.290Z,21.20
2023-05-01T06:37:56.321Z,19.00
2023-05-01T06:38:56.232Z,18.70
2023-05-01T06:39:56.466Z,20.00
2023-05-01T06:40:56.218Z,18.80
2023-05-01T06:41:56.196Z,18.90
2023-05-01T06:42:56.187Z,18.70
2023-05-01T06:43:56.213Z,19.70
2023-05-01T06:44:56.197Z,18.70
2023-05-01T06:45:56.167Z,17.90
2023-05-01T06:46:56.171Z,16.90
2023-05-01T06:47:56.182Z,16.70
2023-05-01T06:48:56.107Z,16.40
2023-05-01T06:49:56.440Z,17.90
2023-05-01T06:50:56.116Z,17.20
2023-05-01T06:51:56.105Z,18.00
2023-05-01T06:52:56.093Z,18.10
2023-05-01T06:53:56.070Z,38.90
2023-05-01T06:54:56.097Z,19.20
2023-05-01T06:55:56.058Z,23.00
2023-05-01T06:56:56.054Z,22.00
2023-05-01T06:57:56.031Z,25.10
2023-05-01T06:58:56.026Z,27.80
2023-05-01T06:59:56.288Z,33.40
2023-05-01T07:00:56.047Z,38.60
2023-05-01T07:01:56.001Z,39.90
2023-05-01T07:02:56.073Z,49.60
2023-05-01T07:03:55.961Z,30.40
2023-05-01T07:04:55.977Z,41.10
2023-05-01T07:05:55.951Z,39.00
2023-05-01T07:06:55.939Z,45.70
2023-05-01T07:08:01.297Z,45.50
2023-05-01T07:08:56.925Z,42.50
2023-05-01T07:09:56.058Z,37.30
2023-05-01T07:10:55.899Z,38.20
2023-05-01T07:11:55.881Z,46.70
2023-05-01T07:12:55.879Z,51.90
2023-05-01T07:13:55.846Z,61.50
2023-05-01T07:14:55.889Z,66.10
2023-05-01T07:15:55.848Z,76.80
2023-05-01T07:16:55.910Z,58.20
2023-05-01T07:17:55.807Z,53.60
2023-05-01T07:18:55.787Z,58.00
2023-05-01T07:19:56.097Z,40.40
2023-05-01T07:20:55.763Z,31.80
2023-05-01T07:21:55.773Z,29.20
2023-05-01T07:22:55.783Z,33.20
2023-05-01T07:23:55.720Z,20.30
2023-05-01T07:24:55.779Z,44.20
2023-05-01T07:25:55.696Z,37.00
2023-05-01T07:26:55.720Z,30.10
2023-05-01T07:27:55.712Z,19.80
2023-05-01T07:28:55.691Z,25.30
2023-05-01T07:29:55.908Z,29.20
2023-05-01T07:30:55.669Z,27.70
2023-05-01T07:31:55.733Z,26.60
2023-05-01T07:32:55.691Z,28.90
2023-05-01T07:33:55.626Z,31.50
2023-05-01T07:34:55.662Z,24.50
2023-05-01T07:35:55.602Z,23.60
2023-05-01T07:36:55.594Z,30.20
2023-05-01T07:37:55.596Z,32.50
2023-05-01T07:38:55.586Z,36.30
2023-05-01T07:39:55.958Z,35.80
2023-05-01T07:40:55.571Z,36.30
2023-05-01T07:41:55.540Z,31.90
2023-05-01T07:42:55.555Z,31.80
2023-05-01T07:43:55.497Z,37.50
2023-05-01T07:44:55.544Z,30.20
2023-05-01T07:45:55.508Z,33.40
2023-05-01T07:46:55.471Z,36.90
2023-05-01T07:47:55.532Z,39.40
2023-05-01T07:48:55.458Z,53.60
2023-05-01T07:49:55.872Z,23.00
2023-05-01T07:50:55.443Z,24.50
2023-05-01T07:51:55.422Z,27.00
2023-05-01T07:52:55.418Z,28.30
2023-05-01T07:53:55.410Z,46.50
2023-05-01T07:54:55.422Z,42.40
2023-05-01T07:55:55.367Z,41.10
2023-05-01T07:56:55.370Z,41.60
2023-05-01T07:57:55.360Z,37.10
2023-05-01T07:58:55.353Z,37.40
2023-05-01T07:59:55.646Z,27.00
2023-05-01T08:00:55.294Z,33.00
2023-05-01T08:01:55.352Z,26.70
2023-05-01T08:02:55.555Z,25.00
2023-05-01T08:03:55.409Z,21.10
2023-05-01T08:04:55.503Z,20.20
2023-05-01T08:05:55.290Z,19.20
2023-05-01T08:06:55.375Z,24.30
2023-05-01T08:07:55.220Z,25.40
2023-05-01T08:08:55.251Z,26.20
2023-05-01T08:09:57.868Z,57.30
2023-05-01T08:10:55.241Z,98.20
2023-05-01T08:11:55.198Z,115.20
2023-05-01T08:12:55.216Z,79.00
2023-05-01T08:13:55.146Z,44.70
2023-05-01T08:14:55.215Z,34.00
2023-05-01T08:15:55.353Z,33.80
2023-05-01T08:16:55.144Z,44.90
2023-05-01T08:17:55.142Z,37.20
2023-05-01T08:18:55.161Z,36.60
2023-05-01T08:19:55.397Z,30.90
2023-05-01T08:20:55.122Z,61.30
2023-05-01T08:21:55.084Z,42.90
2023-05-01T08:22:55.070Z,40.80
2023-05-01T08:23:55.054Z,30.20
2023-05-01T08:24:55.082Z,32.10
2023-05-01T08:25:55.047Z,21.90
2023-05-01T08:26:55.025Z,21.80
2023-05-01T08:27:55.001Z,17.20
2023-05-01T08:28:55.007Z,17.40
2023-05-01T08:29:55.275Z,33.80
2023-05-01T08:30:54.985Z,21.50
2023-05-01T08:31:55.158Z,18.80
2023-05-01T08:32:55.039Z,25.00
2023-05-01T08:33:54.944Z,33.10
2023-05-01T08:34:55.008Z,39.90
2023-05-01T08:35:54.926Z,44.30
2023-05-01T08:36:54.936Z,33.30
2023-05-01T08:37:54.915Z,40.10
2023-05-01T08:38:54.885Z,45.80
2023-05-01T08:39:55.140Z,27.90
2023-05-01T08:40:54.855Z,44.40
2023-05-01T08:41:54.855Z,42.90
2023-05-01T08:42:54.844Z,44.70
2023-05-01T08:43:54.876Z,55.60
2023-05-01T08:44:54.843Z,59.30
2023-05-01T08:45:54.914Z,59.20
2023-05-01T08:46:54.864Z,48.90
2023-05-01T08:47:54.895Z,46.60
2023-05-01T08:48:54.787Z,57.10
2023-05-01T08:49:55.039Z,51.10
2023-05-01T08:50:54.830Z,56.90
2023-05-01T08:51:54.743Z,55.60
2023-05-01T08:52:54.763Z,66.90
2023-05-01T08:53:54.736Z,53.40
2023-05-01T08:54:54.726Z,50.00
2023-05-01T08:55:54.756Z,83.10
2023-05-01T08:56:54.693Z,57.20
2023-05-01T08:57:54.693Z,66.70
2023-05-01T08:58:54.694Z,70.10
2023-05-01T08:59:54.811Z,52.40
2023-05-01T09:00:54.698Z,53.40
2023-05-01T09:01:54.711Z,61.70
2023-05-01T09:02:54.646Z,61.80
2023-05-01T09:03:54.684Z,60.40
2023-05-01T09:04:54.617Z,69.30
2023-05-01T09:05:54.630Z,73.30
2023-05-01T09:06:54.619Z,56.50
2023-05-01T09:07:54.582Z,60.90
2023-05-01T09:08:54.550Z,57.40
2023-05-01T09:09:54.794Z,52.00
2023-05-01T09:10:54.580Z,50.30
2023-05-01T09:11:54.530Z,51.90
2023-05-01T09:12:54.531Z,41.10
2023-05-01T09:13:54.524Z,35.00
2023-05-01T09:14:54.493Z,31.30
2023-05-01T09:15:54.585Z,34.00
2023-05-01T09:16:54.615Z,33.60
2023-05-01T09:17:54.489Z,30.20
2023-05-01T09:18:54.463Z,33.10
2023-05-01T09:19:54.589Z,27.90
2023-05-01T09:20:54.471Z,26.30
2023-05-01T09:21:54.434Z,47.90
2023-05-01T09:22:54.416Z,29.10
2023-05-01T09:23:54.412Z,33.30
2023-05-01T09:24:54.386Z,38.60
2023-05-01T09:25:54.425Z,33.30
2023-05-01T09:26:54.362Z,37.40
2023-05-01T09:27:54.370Z,41.10
2023-05-01T09:28:54.378Z,43.20
2023-05-01T09:29:54.464Z,38.80
2023-05-01T09:30:54.372Z,44.40
2023-05-01T09:31:54.423Z,40.60
2023-05-01T09:32:54.347Z,42.50
2023-05-01T09:33:54.297Z,41.40
2023-05-01T09:34:54.286Z,46.60
2023-05-01T09:35:54.371Z,44.30
2023-05-01T09:36:54.273Z,51.70
2023-05-01T09:37:54.252Z,58.50
2023-05-01T09:38:54.233Z,51.30
2023-05-01T09:39:54.494Z,59.60
2023-05-01T09:40:54.246Z,65.60
2023-05-01T09:41:54.222Z,65.90
2023-05-01T09:42:54.224Z,56.90
2023-05-01T09:43:54.202Z,66.80
2023-05-01T09:44:54.205Z,87.90
2023-05-01T09:45:54.330Z,87.20
2023-05-01T09:46:54.161Z,90.50
2023-05-01T09:47:54.205Z,94.90
2023-05-01T09:48:54.150Z,98.10
2023-05-01T09:49:54.380Z,75.00
2023-05-01T09:50:54.312Z,59.10
2023-05-01T09:51:54.117Z,49.30
2023-05-01T09:52:54.080Z,50.00
2023-05-01T09:53:54.088Z,52.40
2023-05-01T09:54:54.063Z,53.90
2023-05-01T09:55:54.085Z,50.00
2023-05-01T09:56:54.081Z,52.60
2023-05-01T09:57:54.068Z,58.80
2023-05-01T09:58:54.033Z,63.80
2023-05-01T09:59:54.274Z,56.00
2023-05-01T10:00:54.020Z,59.20
2023-05-01T10:01:54.112Z,69.40
2023-05-01T10:02:54.132Z,64.30
2023-05-01T10:03:54.128Z,56.70
2023-05-01T10:04:53.950Z,56.00
2023-05-01T10:05:53.955Z,57.30
2023-05-01T10:06:54.028Z,58.80
2023-05-01T10:07:53.933Z,52.30
2023-05-01T10:08:53.921Z,62.00
2023-05-01T10:09:53.986Z,65.10
2023-05-01T10:10:53.927Z,61.40
2023-05-01T10:11:53.967Z,54.90
2023-05-01T10:12:53.917Z,55.20
2023-05-01T10:13:53.863Z,46.90
2023-05-01T10:14:53.884Z,43.50
2023-05-01T10:15:53.893Z,57.30
2023-05-01T10:16:53.940Z,51.90
2023-05-01T10:17:54.412Z,56.80
2023-05-01T10:18:53.820Z,64.10
2023-05-01T10:19:53.809Z,58.50
2023-05-01T10:20:53.792Z,55.20
2023-05-01T10:21:53.812Z,57.50
2023-05-01T10:22:53.764Z,59.90
2023-05-01T10:23:53.772Z,56.40
2023-05-01T10:24:53.744Z,57.90
2023-05-01T10:25:53.790Z,56.30
2023-05-01T10:26:53.769Z,51.70
2023-05-01T10:27:53.715Z,55.50
2023-05-01T10:28:53.717Z,72.30
2023-05-01T10:29:53.765Z,57.60
2023-05-01T10:30:53.690Z,51.60
2023-05-01T10:31:53.797Z,49.50
2023-05-01T10:32:53.674Z,46.80
2023-05-01T10:33:53.644Z,39.10
2023-05-01T10:34:53.765Z,38.50
2023-05-01T10:35:53.655Z,35.90
2023-05-01T10:36:53.689Z,43.40
2023-05-01T10:37:53.672Z,50.60
2023-05-01T10:38:53.613Z,55.90
2023-05-01T10:39:53.591Z,53.30
2023-05-01T10:40:53.583Z,48.00
2023-05-01T10:41:53.596Z,46.50
2023-05-01T10:42:53.598Z,48.80
2023-05-01T10:43:53.568Z,54.60
2023-05-01T10:44:53.583Z,63.50
2023-05-01T10:45:53.567Z,63.40
2023-05-01T10:46:53.609Z,54.30
2023-05-01T10:47:53.579Z,55.70
2023-05-01T10:48:53.505Z,62.00
2023-05-01T10:49:53.510Z,64.60
2023-05-01T10:50:53.480Z,67.50
2023-05-01T10:51:53.515Z,62.00
2023-05-01T10:52:53.450Z,60.40
2023-05-01T10:53:53.424Z,52.20
2023-05-01T10:54:53.472Z,54.00
2023-05-01T10:55:53.427Z,42.50
2023-05-01T10:56:53.443Z,38.60
2023-05-01T10:57:53.408Z,38.70
2023-05-01T10:58:53.414Z,43.40
2023-05-01T10:59:53.373Z,44.50
2023-05-01T11:00:53.373Z,50.40
2023-05-01T11:01:53.540Z,57.20
2023-05-01T11:02:53.340Z,52.40
2023-05-01T11:03:53.333Z,55.50
2023-05-01T11:04:53.344Z,52.40
2023-05-01T11:05:53.401Z,56.90
2023-05-01T11:06:53.451Z,59.10
2023-05-01T11:07:53.290Z,66.10
2023-05-01T11:08:53.276Z,78.90
2023-05-01T11:09:53.276Z,73.60
2023-05-01T11:10:53.272Z,81.30
2023-05-01T11:11:53.271Z,68.50
2023-05-01T11:12:53.235Z,64.50
2023-05-01T11:13:53.236Z,62.60
2023-05-01T11:14:53.254Z,62.50
2023-05-01T11:15:53.242Z,60.10
2023-05-01T11:16:53.292Z,62.90
2023-05-01T11:17:53.245Z,62.90
2023-05-01T11:18:53.176Z,66.70
2023-05-01T11:19:53.172Z,66.50
2023-05-01T11:20:53.171Z,65.50
2023-05-01T11:21:53.202Z,61.20
2023-05-01T11:22:53.127Z,53.10
2023-05-01T11:23:53.137Z,56.70
2023-05-01T11:24:53.109Z,59.10
2023-05-01T11:25:53.101Z,59.30
2023-05-01T11:26:53.126Z,56.90
2023-05-01T11:27:53.129Z,61.40
2023-05-01T11:28:53.061Z,61.00
2023-05-01T11:29:53.058Z,61.60
2023-05-01T11:30:53.025Z,53.20
2023-05-01T11:31:53.116Z,49.00
2023-05-01T11:32:53.085Z,48.10
2023-05-01T11:33:53.027Z,41.80
2023-05-01T11:34:53.029Z,39.10
2023-05-01T11:35:52.988Z,43.20
2023-05-01T11:36:53.008Z,46.20
2023-05-01T11:37:52.971Z,49.00
2023-05-01T11:38:52.949Z,45.50
2023-05-01T11:39:52.970Z,49.10
2023-05-01T11:40:52.939Z,45.60
2023-05-01T11:41:52.986Z,46.60
2023-05-01T11:42:52.957Z,45.20
2023-05-01T11:43:52.930Z,39.90
2023-05-01T11:44:52.883Z,40.90
2023-05-01T11:45:52.987Z,35.10
2023-05-01T11:46:52.875Z,36.40
2023-05-01T11:47:52.954Z,44.30
2023-05-01T11:48:52.878Z,49.30
2023-05-01T11:49:52.857Z,45.70
2023-05-01T11:50:52.829Z,45.30
2023-05-01T11:51:52.830Z,33.90
2023-05-01T11:52:52.861Z,54.10
2023-05-01T11:53:52.838Z,54.10
2023-05-01T11:54:52.793Z,46.00
2023-05-01T11:55:52.797Z,31.80
2023-05-01T11:56:52.759Z,31.60
2023-05-01T11:57:52.792Z,36.40
2023-05-01T11:58:52.731Z,43.20
2023-05-01T11:59:52.729Z,101.70
2023-05-01T12:00:52.719Z,88.70
2023-05-01T12:01:52.812Z,67.30
2023-05-01T12:02:52.831Z,68.30
2023-05-01T12:03:52.804Z,40.40
2023-05-01T12:04:52.926Z,40.20
2023-05-01T12:05:52.689Z,33.70
2023-05-01T12:06:52.767Z,30.00
2023-05-01T12:07:52.713Z,31.70
2023-05-01T12:08:52.697Z,26.70
2023-05-01T12:09:52.654Z,27.40
2023-05-01T12:10:52.732Z,31.10
2023-05-01T12:11:53.139Z,33.40
2023-05-01T12:12:52.670Z,35.70
2023-05-01T12:13:52.627Z,45.30
2023-05-01T12:14:52.575Z,41.30
2023-05-01T12:15:52.633Z,42.40
2023-05-01T12:16:52.654Z,44.50
2023-05-01T12:17:52.685Z,54.70
2023-05-01T12:18:52.610Z,45.10
2023-05-01T12:19:52.568Z,31.00
2023-05-01T12:20:52.536Z,29.40
2023-05-01T12:21:52.499Z,28.70
2023-05-01T12:22:52.530Z,27.10
2023-05-01T12:23:52.468Z,27.50
2023-05-01T12:24:52.488Z,29.80
2023-05-01T12:25:52.465Z,25.20
2023-05-01T12:26:52.445Z,26.90
2023-05-01T12:27:52.486Z,29.20
2023-05-01T12:28:52.431Z,26.30
2023-05-01T12:29:52.416Z,26.00
2023-05-01T12:30:52.416Z,27.60
2023-05-01T12:31:52.471Z,28.50
2023-05-01T12:32:52.472Z,28.80
2023-05-01T12:33:52.385Z,25.10
2023-05-01T12:34:52.385Z,23.50
2023-05-01T12:35:52.411Z,24.10
2023-05-01T12:36:52.356Z,22.80
2023-05-01T12:37:52.396Z,23.10
2023-05-01T12:38:52.350Z,24.90
2023-05-01T12:39:52.303Z,23.60
2023-05-01T12:40:52.316Z,23.20